map of MTT home
MTT - Airport
Location
City:  Minatitlán, Veracruz, México
Name:Minatitlán/Coatzacoalcos National
ICAO:MMMT
IATA:MTT

Details
Type:Airport (Aerodrome, Airfield)
Latitude:18°06'12"N (18.103419)
Longitude:94°34'50"W (-94.580680)
Datum:WGS 1984
Elevation:36 ft (11 m)
Variation:2.58°E (WMM2015 magnetic declination)
-0.13° annual change
Runways:1
Longest:6890 × 148 ft (2100 × 45 m), paved

Time
Time Zone:UTC-6 (DST-5)
Local Time:

Weather
METAR:MMMT 150041Z 36015KT 7SM OVC040 22/18 A3008 RMK 8/5//
TAF:MMMT 150510Z 1506/1606 36010KT 6SM HZ OVC030
TEMPO 1511/1515 2SM BR BKN005 OVC010
FM151800 03015KT 6SM HZ BKN030
FM160300 33008KT 6SM HZ BKN020

Related Locations
Nearby:
Farthest:CCK: 11581 mi / 18638 km
West Island (Pulau Panjang) [Cocos (Keeling) Islands], CC

Find:

   beyond  
but within

Other Information
Maps:
NOTAMs:
Links:
Sources:

  
  • flag of México
  • flag of Veracruz
  

Sectional Chart

Flight Planning
at skyvector.com

Satellite Image

Google Maps Satellite view

 

Copyright © 2004-2018 Karl L. Swartz. All rights reserved.
The Great Circle Mapper name and logo are trademarks of the Great Circle Mapper.
All other trademarks mentioned herein belong to their respective owners.
Please see credits for attibutions and further copyright information.

  Follow gcmap on Facebook Follow gcmap on Twitter Follow gcmap on Google+ GCmap on LinkedIn

hCard Microformat

Geo Microformat